createdAt,value
2022-10-15T00:01:15.214Z,23.60
2022-10-15T00:03:44.476Z,22.40
2022-10-15T00:06:14.600Z,21.48
2022-10-15T00:08:43.106Z,19.90
2022-10-15T00:11:19.551Z,19.30
2022-10-15T00:13:48.294Z,19.60
2022-10-15T00:16:19.170Z,19.37
2022-10-15T00:18:46.993Z,18.87
2022-10-15T00:21:16.542Z,18.83
2022-10-15T00:23:44.634Z,20.20
2022-10-15T00:26:15.286Z,20.45
2022-10-15T00:28:43.582Z,20.52
2022-10-15T00:31:14.043Z,21.48
2022-10-15T00:33:41.935Z,20.52
2022-10-15T00:36:17.706Z,20.65
2022-10-15T00:38:45.645Z,19.37
2022-10-15T00:41:16.084Z,19.75
2022-10-15T00:44:23.283Z,19.08
2022-10-15T00:47:03.375Z,19.17
2022-10-15T00:49:31.120Z,17.67
2022-10-15T00:52:31.220Z,16.70
2022-10-15T00:55:35.686Z,16.55
2022-10-15T00:58:10.296Z,15.73
2022-10-15T01:00:37.653Z,14.23
2022-10-15T01:03:05.317Z,14.32
2022-10-15T01:05:33.716Z,14.32
2022-10-15T01:08:01.072Z,14.48
2022-10-15T01:10:39.482Z,13.13
2022-10-15T01:13:15.297Z,13.13
2022-10-15T01:16:04.862Z,13.48
2022-10-15T01:18:38.888Z,13.60
2022-10-15T01:21:18.565Z,13.87
2022-10-15T01:23:52.885Z,14.23
2022-10-15T01:26:42.162Z,14.47
2022-10-15T01:29:25.101Z,14.73
2022-10-15T01:32:00.996Z,13.52
2022-10-15T01:34:47.679Z,13.25
2022-10-15T01:37:22.828Z,13.32
2022-10-15T01:39:55.225Z,14.25
2022-10-15T01:42:34.720Z,14.15
2022-10-15T01:45:07.240Z,13.38
2022-10-15T01:47:46.568Z,14.52
2022-10-15T01:50:14.825Z,12.82
2022-10-15T01:52:43.815Z,13.18
2022-10-15T01:55:14.250Z,13.15
2022-10-15T01:57:44.396Z,13.70
2022-10-15T02:00:13.676Z,13.25
2022-10-15T02:02:41.713Z,13.27
2022-10-15T02:05:25.652Z,13.27
2022-10-15T02:08:02.341Z,12.80
2022-10-15T02:10:43.432Z,12.05
2022-10-15T02:13:23.428Z,12.88
2022-10-15T02:16:06.925Z,12.45
2022-10-15T02:18:58.385Z,12.77
2022-10-15T02:21:31.526Z,12.55
2022-10-15T02:24:16.887Z,12.68
2022-10-15T02:26:44.961Z,12.70
2022-10-15T02:29:18.393Z,12.57
2022-10-15T02:31:47.595Z,12.63
2022-10-15T02:34:18.835Z,12.27
2022-10-15T02:36:46.918Z,12.30
2022-10-15T02:39:17.621Z,13.05
2022-10-15T02:41:45.517Z,13.38
2022-10-15T02:44:13.415Z,11.70
2022-10-15T02:46:40.917Z,13.40
2022-10-15T02:49:10.421Z,12.07
2022-10-15T02:51:38.025Z,12.55
2022-10-15T02:54:07.110Z,12.70
2022-10-15T02:56:35.392Z,12.10
2022-10-15T02:59:05.894Z,12.35
2022-10-15T03:01:34.383Z,11.68
2022-10-15T03:04:02.903Z,12.40
2022-10-15T03:06:30.903Z,12.45
2022-10-15T03:08:58.391Z,13.10
2022-10-15T03:11:26.217Z,12.65
2022-10-15T03:13:53.874Z,12.20
2022-10-15T03:16:21.578Z,12.07
2022-10-15T03:18:48.932Z,12.70
2022-10-15T03:21:16.894Z,12.68
2022-10-15T03:23:44.312Z,13.02
2022-10-15T03:26:12.121Z,12.40
2022-10-15T03:28:40.374Z,12.70
2022-10-15T03:31:08.007Z,13.75
2022-10-15T03:33:35.371Z,13.38
2022-10-15T03:36:03.201Z,13.05
2022-10-15T03:38:30.581Z,13.15
2022-10-15T03:40:58.283Z,12.77
2022-10-15T03:43:29.165Z,13.10
2022-10-15T03:46:04.666Z,12.80
2022-10-15T03:48:33.394Z,13.18
2022-10-15T03:51:00.790Z,14.73
2022-10-15T03:53:28.225Z,14.32
2022-10-15T03:55:55.832Z,13.15
2022-10-15T03:58:23.627Z,14.68
2022-10-15T04:00:52.899Z,14.32
2022-10-15T04:03:20.541Z,14.48
2022-10-15T04:05:55.271Z,13.82
2022-10-15T04:08:25.547Z,13.50
2022-10-15T04:10:53.162Z,14.80
2022-10-15T04:13:20.759Z,13.80
2022-10-15T04:15:48.430Z,14.13
2022-10-15T04:18:15.787Z,13.25
2022-10-15T04:20:43.428Z,13.68
2022-10-15T04:23:12.373Z,13.95
2022-10-15T04:25:40.223Z,15.07
2022-10-15T04:28:07.780Z,15.25
2022-10-15T04:30:35.779Z,15.40
2022-10-15T04:33:03.785Z,13.18
2022-10-15T04:35:32.133Z,14.82
2022-10-15T04:37:59.953Z,14.80
2022-10-15T04:40:28.191Z,15.45
2022-10-15T04:42:55.536Z,15.45
2022-10-15T04:47:51.854Z,16.35
2022-10-15T04:50:19.691Z,15.02
2022-10-15T04:53:01.431Z,16.55
2022-10-15T04:55:30.152Z,16.50
2022-10-15T04:57:58.025Z,16.23
2022-10-15T05:00:29.419Z,16.27
2022-10-15T05:03:00.951Z,16.87
2022-10-15T05:05:31.478Z,14.98
2022-10-15T05:08:04.315Z,16.90
2022-10-15T05:10:32.857Z,15.98
2022-10-15T05:13:03.654Z,15.00
2022-10-15T05:15:31.358Z,15.32
2022-10-15T05:17:58.697Z,16.90
2022-10-15T05:20:29.290Z,15.95
2022-10-15T05:22:57.684Z,15.77
2022-10-15T05:25:28.851Z,16.92
2022-10-15T05:27:56.991Z,17.15
2022-10-15T05:30:24.560Z,17.15
2022-10-15T05:32:53.237Z,18.23
2022-10-15T05:35:21.555Z,17.67
2022-10-15T05:37:52.178Z,16.90
2022-10-15T05:40:21.888Z,17.02
2022-10-15T05:45:22.128Z,17.23
2022-10-15T05:47:54.428Z,17.33
2022-10-15T05:50:25.446Z,17.73
2022-10-15T05:52:54.661Z,18.80
2022-10-15T05:55:22.127Z,16.87
2022-10-15T05:57:51.943Z,16.55
2022-10-15T06:00:19.563Z,18.23
2022-10-15T06:02:50.714Z,17.52
2022-10-15T06:05:18.148Z,15.50
2022-10-15T06:07:45.480Z,16.92
2022-10-15T06:10:13.067Z,17.62
2022-10-15T06:12:40.939Z,16.75
2022-10-15T06:15:08.808Z,16.83
2022-10-15T06:17:36.374Z,17.17
2022-10-15T06:20:03.843Z,16.77
2022-10-15T06:22:31.430Z,16.70
2022-10-15T06:24:59.046Z,17.37
2022-10-15T06:27:27.281Z,16.85
2022-10-15T06:29:54.597Z,16.50
2022-10-15T06:32:22.181Z,17.77
2022-10-15T06:34:49.515Z,16.45
2022-10-15T06:37:16.852Z,17.73
2022-10-15T06:39:46.630Z,16.92
2022-10-15T06:42:14.052Z,16.30
2022-10-15T06:44:41.376Z,17.02
2022-10-15T06:47:09.547Z,15.77
2022-10-15T06:49:36.876Z,15.85
2022-10-15T06:52:04.302Z,12.98
2022-10-15T06:54:31.901Z,11.85
2022-10-15T06:56:59.233Z,12.37
2022-10-15T06:59:26.618Z,11.30
2022-10-15T07:01:54.840Z,11.85
2022-10-15T07:04:23.330Z,11.95
2022-10-15T07:06:50.659Z,11.93
2022-10-15T07:09:20.629Z,10.77
2022-10-15T07:11:50.575Z,12.45
2022-10-15T07:14:18.214Z,10.95
2022-10-15T07:16:45.541Z,12.05
2022-10-15T07:19:12.867Z,12.52
2022-10-15T07:21:40.586Z,12.00
2022-10-15T07:24:07.957Z,11.65
2022-10-15T07:26:35.378Z,11.30
2022-10-15T07:29:04.164Z,11.55
2022-10-15T07:31:31.827Z,11.43
2022-10-15T07:33:59.258Z,11.98
2022-10-15T07:36:27.162Z,12.13
2022-10-15T07:38:54.556Z,11.07
2022-10-15T07:41:21.967Z,11.63
2022-10-15T07:43:52.172Z,11.30
2022-10-15T07:46:19.521Z,10.38
2022-10-15T07:48:47.331Z,10.30
2022-10-15T07:51:15.192Z,11.80
2022-10-15T07:53:43.982Z,10.35
2022-10-15T07:56:12.110Z,10.60
2022-10-15T07:58:39.760Z,10.93
2022-10-15T08:01:08.594Z,10.88
2022-10-15T08:03:37.235Z,10.30
2022-10-15T08:06:06.434Z,10.77
2022-10-15T08:08:34.569Z,10.30
2022-10-15T08:11:10.605Z,10.88
2022-10-15T08:13:42.194Z,10.82
2022-10-15T08:16:11.498Z,10.55
2022-10-15T08:18:39.243Z,10.10
2022-10-15T08:21:07.896Z,9.60
2022-10-15T08:23:36.115Z,10.70
2022-10-15T08:26:04.352Z,10.13
2022-10-15T08:28:32.700Z,9.95
2022-10-15T08:31:04.569Z,10.50
2022-10-15T08:33:37.676Z,8.82
2022-10-15T08:36:06.437Z,9.75
2022-10-15T08:38:34.799Z,8.82
2022-10-15T08:41:02.978Z,8.73
2022-10-15T08:43:36.026Z,9.23
2022-10-15T08:46:11.809Z,9.23
2022-10-15T08:48:48.437Z,8.70
2022-10-15T08:51:20.802Z,9.05
2022-10-15T08:53:55.367Z,8.73
2022-10-15T08:56:28.059Z,8.32
2022-10-15T08:59:05.401Z,8.25
2022-10-15T09:01:39.327Z,8.23
2022-10-15T09:04:58.932Z,8.38
2022-10-15T09:07:36.862Z,8.65
2022-10-15T09:10:45.027Z,8.10
2022-10-15T09:13:33.572Z,8.55
2022-10-15T09:16:05.576Z,7.80
2022-10-15T09:18:34.413Z,8.77
2022-10-15T09:21:05.004Z,8.73
2022-10-15T09:23:33.072Z,8.73
2022-10-15T09:26:12.740Z,7.87
2022-10-15T09:29:07.865Z,8.30
2022-10-15T09:31:51.831Z,7.32
2022-10-15T09:34:31.406Z,7.05
2022-10-15T09:37:04.765Z,7.53
2022-10-15T09:40:46.459Z,7.97
2022-10-15T09:43:14.368Z,7.90
2022-10-15T09:45:42.139Z,7.60
2022-10-15T09:48:16.507Z,7.68
2022-10-15T09:53:34.786Z,6.78
2022-10-15T09:56:11.231Z,7.75
2022-10-15T09:58:47.599Z,6.53
2022-10-15T10:01:20.327Z,7.43
2022-10-15T10:03:52.983Z,6.70
2022-10-15T10:06:21.205Z,5.62
2022-10-15T10:09:11.608Z,6.10
2022-10-15T10:11:56.771Z,7.12
2022-10-15T10:14:45.377Z,6.85
2022-10-15T10:17:22.578Z,6.65
2022-10-15T10:20:08.702Z,6.32
2022-10-15T10:22:51.476Z,6.20
2022-10-15T10:25:42.575Z,6.40
2022-10-15T10:28:09.956Z,6.15
2022-10-15T10:31:00.402Z,6.20
2022-10-15T10:33:31.627Z,5.97
2022-10-15T10:35:59.651Z,5.35
2022-10-15T10:38:30.471Z,5.32
2022-10-15T10:41:05.252Z,5.40
2022-10-15T10:43:38.303Z,5.05
2022-10-15T10:46:18.099Z,4.95
2022-10-15T10:48:48.932Z,4.50
2022-10-15T10:51:25.044Z,4.47
2022-10-15T10:53:57.370Z,5.07
2022-10-15T10:56:28.974Z,4.72
2022-10-15T10:59:16.926Z,4.75
2022-10-15T11:01:45.166Z,4.80
2022-10-15T11:04:21.028Z,5.12
2022-10-15T11:07:06.911Z,4.95
2022-10-15T11:09:56.474Z,5.43
2022-10-15T11:12:45.613Z,4.68
2022-10-15T11:15:13.078Z,4.15
2022-10-15T11:17:50.272Z,4.70
2022-10-15T11:20:49.806Z,5.40
2022-10-15T11:23:48.659Z,4.55
2022-10-15T11:26:46.015Z,4.47
2022-10-15T11:29:40.831Z,4.28
2022-10-15T11:32:16.745Z,4.07
2022-10-15T11:34:58.923Z,4.45
2022-10-15T11:37:38.746Z,4.62
2022-10-15T11:40:20.384Z,4.65
2022-10-15T11:43:34.803Z,4.82
2022-10-15T11:46:12.926Z,4.87
2022-10-15T11:49:01.845Z,4.20
2022-10-15T11:51:29.040Z,4.45
2022-10-15T11:54:04.675Z,4.45
2022-10-15T11:56:46.192Z,4.32
2022-10-15T11:59:37.944Z,4.30
2022-10-15T12:02:12.113Z,5.12
2022-10-15T12:04:42.240Z,4.15
2022-10-15T12:07:17.076Z,4.37
2022-10-15T12:09:48.256Z,4.03
2022-10-15T12:12:34.156Z,4.28
2022-10-15T12:15:16.061Z,4.37
2022-10-15T12:20:24.354Z,4.80
2022-10-15T12:22:54.751Z,4.30
2022-10-15T12:25:34.333Z,4.37
2022-10-15T12:28:13.875Z,4.35
2022-10-15T12:30:43.002Z,7.22
2022-10-15T12:33:28.955Z,4.68
2022-10-15T12:35:58.796Z,3.60
2022-10-15T12:38:35.039Z,3.60
2022-10-15T12:41:07.874Z,3.40
2022-10-15T12:43:38.823Z,3.47
2022-10-15T12:46:07.640Z,3.30
2022-10-15T12:48:38.052Z,4.00
2022-10-15T12:51:23.771Z,3.30
2022-10-15T12:53:52.885Z,3.45
2022-10-15T12:56:40.422Z,3.20
2022-10-15T12:59:31.409Z,3.50
2022-10-15T13:02:02.488Z,3.53
2022-10-15T13:04:38.295Z,3.72
2022-10-15T13:07:06.507Z,3.83
2022-10-15T13:09:34.740Z,3.60
2022-10-15T13:12:03.903Z,3.83
2022-10-15T13:14:40.184Z,3.65
2022-10-15T13:17:19.695Z,4.07
2022-10-15T13:19:55.631Z,3.92
2022-10-15T13:22:28.299Z,3.47
2022-10-15T13:24:56.028Z,3.67
2022-10-15T13:27:33.649Z,3.50
2022-10-15T13:30:13.087Z,3.42
2022-10-15T13:32:46.621Z,3.45
2022-10-15T13:35:18.872Z,3.60
2022-10-15T13:37:46.948Z,3.15
2022-10-15T13:40:21.963Z,3.35
2022-10-15T13:43:02.440Z,3.83
2022-10-15T13:45:30.125Z,3.65
2022-10-15T13:47:57.830Z,3.35
2022-10-15T13:50:31.458Z,3.67
2022-10-15T13:53:14.708Z,3.70
2022-10-15T13:55:53.508Z,3.40
2022-10-15T13:58:27.620Z,3.67
2022-10-15T14:01:15.804Z,3.80
2022-10-15T14:03:47.289Z,4.18
2022-10-15T14:06:39.201Z,3.65
2022-10-15T14:09:24.231Z,3.60
2022-10-15T14:14:41.638Z,3.58
2022-10-15T14:17:14.392Z,3.35
2022-10-15T14:19:47.251Z,3.70
2022-10-15T14:22:18.850Z,4.00
2022-10-15T14:24:48.622Z,3.87
2022-10-15T14:27:18.956Z,4.90
2022-10-15T14:29:48.350Z,4.65
2022-10-15T14:32:30.643Z,4.68
2022-10-15T14:35:04.186Z,4.80
2022-10-15T14:37:36.369Z,4.50
2022-10-15T14:40:10.823Z,5.22
2022-10-15T14:42:40.567Z,5.37
2022-10-15T14:45:42.152Z,5.37
2022-10-15T14:48:15.044Z,5.00
2022-10-15T14:50:43.913Z,5.37
2022-10-15T14:53:20.421Z,4.68
2022-10-15T14:55:52.336Z,4.80
2022-10-15T14:58:21.735Z,5.03
2022-10-15T15:00:56.534Z,5.28
2022-10-15T15:03:31.607Z,5.40
2022-10-15T15:05:59.288Z,5.10
2022-10-15T15:08:26.715Z,5.00
2022-10-15T15:10:57.345Z,4.93
2022-10-15T15:13:26.886Z,5.68
2022-10-15T15:15:54.549Z,5.20
2022-10-15T15:18:22.500Z,5.47
2022-10-15T15:20:51.001Z,7.57
2022-10-15T15:23:20.861Z,6.40
2022-10-15T15:25:48.434Z,6.78
2022-10-15T15:28:20.508Z,6.87
2022-10-15T15:30:55.370Z,7.60
2022-10-15T15:33:22.955Z,7.05
2022-10-15T15:35:52.779Z,6.85
2022-10-15T15:38:21.779Z,5.70
2022-10-15T15:40:49.904Z,6.78
2022-10-15T15:43:18.732Z,6.37
2022-10-15T15:45:46.592Z,6.05
2022-10-15T15:48:14.300Z,6.18
2022-10-15T15:50:41.829Z,5.72
2022-10-15T15:53:09.420Z,5.45
2022-10-15T15:55:37.409Z,5.03
2022-10-15T15:58:04.761Z,5.32
2022-10-15T16:00:32.106Z,5.60
2022-10-15T16:02:59.732Z,5.75
2022-10-15T16:05:27.044Z,5.47
2022-10-15T16:07:54.354Z,4.65
2022-10-15T16:10:21.958Z,4.97
2022-10-15T16:12:49.309Z,5.47
2022-10-15T16:15:16.647Z,5.12
2022-10-15T16:17:44.242Z,5.37
2022-10-15T16:20:11.919Z,5.62
2022-10-15T16:22:39.407Z,5.03
2022-10-15T16:25:07.700Z,5.70
2022-10-15T16:27:35.111Z,5.90
2022-10-15T16:30:03.324Z,5.57
2022-10-15T16:32:31.093Z,4.97
2022-10-15T16:34:59.046Z,4.78
2022-10-15T16:37:26.691Z,4.75
2022-10-15T16:39:54.546Z,5.22
2022-10-15T16:42:21.892Z,5.22
2022-10-15T16:44:51.015Z,5.72
2022-10-15T16:47:18.959Z,5.97
2022-10-15T16:49:46.288Z,6.37
2022-10-15T16:52:14.928Z,6.93
2022-10-15T16:54:42.533Z,6.60
2022-10-15T16:57:09.852Z,7.20
2022-10-15T16:59:37.175Z,7.78
2022-10-15T17:02:05.053Z,7.70
2022-10-15T17:04:32.735Z,6.62
2022-10-15T17:07:00.382Z,7.05
2022-10-15T17:09:28.136Z,7.03
2022-10-15T17:11:55.673Z,6.90
2022-10-15T17:14:23.038Z,7.10
2022-10-15T17:16:52.592Z,7.05
2022-10-15T17:19:23.545Z,6.82
2022-10-15T17:21:52.305Z,7.20
2022-10-15T17:24:19.687Z,6.80
2022-10-15T17:26:48.088Z,7.05
2022-10-15T17:29:20.183Z,7.60
2022-10-15T17:31:48.586Z,7.45
2022-10-15T17:34:16.815Z,6.60
2022-10-15T17:36:47.271Z,6.50
2022-10-15T17:39:17.326Z,6.95
2022-10-15T17:41:45.065Z,7.28
2022-10-15T17:44:12.892Z,7.45
2022-10-15T17:46:41.262Z,8.55
2022-10-15T17:49:11.976Z,7.97
2022-10-15T17:51:39.850Z,8.57
2022-10-15T17:54:07.593Z,8.10
2022-10-15T17:56:36.610Z,8.40
2022-10-15T17:59:06.702Z,8.60
2022-10-15T18:01:57.323Z,8.68
2022-10-15T18:04:24.704Z,7.82
2022-10-15T18:06:52.219Z,7.55
2022-10-15T18:09:25.472Z,7.70
2022-10-15T18:11:56.773Z,6.90
2022-10-15T18:14:29.342Z,7.70
2022-10-15T18:16:57.743Z,7.70
2022-10-15T18:19:27.005Z,8.25
2022-10-15T18:21:55.764Z,9.05
2022-10-15T18:24:24.208Z,7.20
2022-10-15T18:26:52.623Z,7.97
2022-10-15T18:29:20.815Z,8.93
2022-10-15T18:31:52.182Z,7.60
2022-10-15T18:34:22.851Z,8.40
2022-10-15T18:36:50.963Z,8.75
2022-10-15T18:39:18.559Z,9.73
2022-10-15T18:41:45.973Z,8.90
2022-10-15T18:44:16.632Z,7.80
2022-10-15T18:46:45.897Z,8.48
2022-10-15T18:49:16.181Z,8.07
2022-10-15T18:51:52.083Z,8.35
2022-10-15T18:54:20.804Z,7.18
2022-10-15T18:56:48.526Z,8.23
2022-10-15T18:59:19.939Z,7.82
2022-10-15T19:01:49.561Z,7.57
2022-10-15T19:04:20.888Z,7.70
2022-10-15T19:06:51.175Z,9.07
2022-10-15T19:09:22.482Z,8.27
2022-10-15T19:11:51.976Z,8.48
2022-10-15T19:14:19.487Z,9.75
2022-10-15T19:16:47.562Z,9.02
2022-10-15T19:19:18.005Z,7.60
2022-10-15T19:21:46.679Z,8.35
2022-10-15T19:24:15.021Z,8.50
2022-10-15T19:26:43.067Z,8.07
2022-10-15T19:29:10.595Z,7.55
2022-10-15T19:31:40.435Z,6.70
2022-10-15T19:34:08.309Z,8.10
2022-10-15T19:36:38.979Z,6.80
2022-10-15T19:39:09.016Z,7.85
2022-10-15T19:41:38.082Z,8.05
2022-10-15T19:44:07.860Z,7.78
2022-10-15T19:46:36.553Z,8.18
2022-10-15T19:49:06.009Z,6.30
2022-10-15T19:51:34.128Z,7.40
2022-10-15T19:54:02.029Z,6.53
2022-10-15T19:56:30.841Z,5.85
2022-10-15T19:59:00.303Z,6.72
2022-10-15T20:01:28.391Z,6.68
2022-10-15T20:04:03.201Z,6.35
2022-10-15T20:06:35.029Z,7.03
2022-10-15T20:09:03.985Z,6.50
2022-10-15T20:11:31.427Z,6.57
2022-10-15T20:13:59.676Z,7.22
2022-10-15T20:16:28.775Z,7.20
2022-10-15T20:19:01.677Z,6.87
2022-10-15T20:21:29.363Z,6.97
2022-10-15T20:23:56.684Z,6.87
2022-10-15T20:26:24.087Z,6.93
2022-10-15T20:28:52.054Z,7.15
2022-10-15T20:31:21.461Z,7.18
2022-10-15T20:33:49.314Z,7.47
2022-10-15T20:36:22.525Z,7.00
2022-10-15T20:38:51.761Z,7.10
2022-10-15T20:41:19.967Z,6.22
2022-10-15T20:43:54.003Z,6.10
2022-10-15T20:46:34.598Z,5.43
2022-10-15T20:49:08.802Z,6.18
2022-10-15T20:51:39.985Z,5.70
2022-10-15T20:54:07.673Z,6.00
2022-10-15T20:56:35.466Z,5.40
2022-10-15T20:59:05.039Z,5.72
2022-10-15T21:01:33.813Z,5.32
2022-10-15T21:04:01.489Z,5.55
2022-10-15T21:06:29.320Z,5.28
2022-10-15T21:08:57.151Z,5.18
2022-10-15T21:11:24.558Z,5.18
2022-10-15T21:13:52.217Z,5.37
2022-10-15T21:16:21.416Z,4.97
2022-10-15T21:18:50.674Z,5.18
2022-10-15T21:21:18.251Z,5.20
2022-10-15T21:23:46.092Z,5.75
2022-10-15T21:26:16.172Z,5.40
2022-10-15T21:28:44.083Z,5.60
2022-10-15T21:31:13.494Z,5.72
2022-10-15T21:33:41.095Z,5.28
2022-10-15T21:36:22.036Z,5.32
2022-10-15T21:38:56.040Z,5.68
2022-10-15T21:41:24.835Z,5.28
2022-10-15T21:43:52.613Z,5.05
2022-10-15T21:46:20.014Z,5.93
2022-10-15T21:48:47.642Z,5.28
2022-10-15T21:51:17.683Z,5.30
2022-10-15T21:53:45.571Z,5.07
2022-10-15T21:56:13.864Z,5.18
2022-10-15T21:58:41.470Z,4.90
2022-10-15T22:01:09.251Z,5.47
2022-10-15T22:03:37.019Z,6.10
2022-10-15T22:06:05.693Z,7.47
2022-10-15T22:08:33.303Z,5.47
2022-10-15T22:11:31.134Z,5.80
2022-10-15T22:14:00.770Z,5.32
2022-10-15T22:16:28.726Z,5.15
2022-10-15T22:18:56.703Z,5.28
2022-10-15T22:21:26.640Z,5.35
2022-10-15T22:23:59.580Z,4.50
2022-10-15T22:26:29.734Z,5.22
2022-10-15T22:28:59.899Z,4.70
2022-10-15T22:31:27.814Z,5.12
2022-10-15T22:33:55.687Z,5.12
2022-10-15T22:36:25.865Z,5.30
2022-10-15T22:39:01.595Z,4.93
2022-10-15T22:41:31.415Z,5.28
2022-10-15T22:43:58.974Z,4.97
2022-10-15T22:46:27.668Z,4.80
2022-10-15T22:48:55.296Z,5.40
2022-10-15T22:51:22.652Z,5.28
2022-10-15T22:53:50.002Z,5.28
2022-10-15T22:56:18.701Z,4.87
2022-10-15T22:58:46.551Z,4.93
2022-10-15T23:01:25.205Z,5.28
2022-10-15T23:03:55.315Z,5.12
2022-10-15T23:06:23.361Z,5.35
2022-10-15T23:08:51.653Z,5.40
2022-10-15T23:11:20.398Z,5.03
2022-10-15T23:13:48.448Z,4.82
2022-10-15T23:16:16.940Z,5.30
2022-10-15T23:18:46.329Z,5.28
2022-10-15T23:21:16.120Z,5.00
2022-10-15T23:23:44.648Z,5.45
2022-10-15T23:26:14.513Z,5.03
2022-10-15T23:28:43.522Z,5.12
2022-10-15T23:31:21.624Z,5.47
2022-10-15T23:33:49.202Z,5.18
2022-10-15T23:36:18.207Z,5.18
2022-10-15T23:38:48.781Z,4.82
2022-10-15T23:41:16.400Z,5.18
2022-10-15T23:43:43.725Z,4.78
2022-10-15T23:46:11.488Z,5.65
2022-10-15T23:48:39.131Z,4.80
2022-10-15T23:51:24.660Z,5.03
2022-10-15T23:53:53.533Z,5.30
2022-10-15T23:56:21.541Z,5.25
2022-10-15T23:58:49.941Z,5.20
